In Rescue
 
Open Full Screen Window  High Contrast Mode
Wind Gusting 00 knots
08
November 29, 2022 10:40 AM EST
Weather Information
Wind Direction
  120 °
Wind Speed
  08 kt (9 mph)
Wind Gust
  00 kt (0 mph)
Altimeter
29.93 in
Visibility
7 SM
Temperature
06° C
43° F
Dewpoint
03° C
37° F
Humidity
81%
Sky Condition
Overcast @ 2,400 ft
MVFR

METAR KAMN 291540Z AUTO 12008KT 7SM OVC024 06/03 A2993 RMK AO2 T00590027

FAA Disclaimer: The data displayed is for advisory purposes only and is not to be used for flight planning or operations.